Aviation WX

[Source: ADDS]
METAR
KFKL 301035Z 00000KT 3SM 11/09 A3023 RMK AO1 =
TAF
KFKL 300528Z 3006/3106 05003KT P6SM SKC FM301400 26005KT P6SM SCT250 AMD LTD TO CLD VIS AND WIND =